This is the latest recevied weather packets stored in our database for station/object N4WFF. If no packets are shown the sender has not sent any weather packets the latest 10 day(s).
| Time | Temp. | Humidity | Pressure | Rain* | Wind** | Luminosity | Snow |
|---|---|---|---|---|---|---|---|
| 1777995056 | 21.67° C | 64% | 1016.5 hPa | 0 mm | - | 512 W/m² | - |
| 1777994755 | 21.67° C | 64% | 1016.5 hPa | 0 mm | - | 783 W/m² | - |
| 1777994455 | 21.67° C | 64% | 1016.6 hPa | 0 mm | - | 440 W/m² | - |
| 1777994157 | 21.67° C | 65% | 1016.6 hPa | 0 mm | - | 758 W/m² | - |
| 1777993858 | 21.67° C | 65% | 1016.7 hPa | 0 mm | - | 684 W/m² | - |
| 1777993556 | 21.67° C | 65% | 1016.6 hPa | 0 mm | - | 687 W/m² | - |
| 1777993256 | 21.67° C | 64% | 1016.7 hPa | 0 mm | - | 681 W/m² | - |
| 1777992956 | 21.11° C | 65% | 1016.7 hPa | 0 mm | - | 693 W/m² | - |
| 1777992656 | 20.56° C | 66% | 1016.6 hPa | 0 mm | - | 615 W/m² | - |
| 1777992355 | 20.56° C | 67% | 1016.7 hPa | 0 mm | - | 533 W/m² | - |
| 1777992056 | 20.56° C | 67% | 1016.8 hPa | 0 mm | - | 542 W/m² | - |
| 1777991756 | 20.56° C | 67% | 1016.7 hPa | 0 mm | - | 547 W/m² | - |
| 1777991456 | 20° C | 69% | 1016.7 hPa | 0 mm | - | 603 W/m² | - |
| 1777991156 | 20.56° C | 67% | 1016.7 hPa | 0 mm | - | 354 W/m² | - |
| 1777990856 | 20° C | 69% | 1016.5 hPa | 0 mm | - | 538 W/m² | - |
| 1777990555 | 20° C | 68% | 1016.5 hPa | 0 mm | - | 341 W/m² | - |
| 1777989956 | 20° C | 72% | 1016.4 hPa | 0 mm | - | 531 W/m² | - |
| 1777989656 | 19.44° C | 71% | 1016.5 hPa | 0 mm | - | 504 W/m² | - |
| 1777989356 | 19.44° C | 72% | 1016.4 hPa | 0 mm | - | 480 W/m² | - |
| 1777989058 | 18.89° C | 73% | 1016.4 hPa | 0 mm | - | 473 W/m² | - |
| 1777988757 | 18.89° C | 73% | 1016.3 hPa | 0 mm | - | 467 W/m² | - |
| 1777988459 | 18.89° C | 73% | 1016.2 hPa | 0 mm | - | 371 W/m² | - |
| 1777988156 | 18.33° C | 76% | 1016.2 hPa | 0 mm | - | 466 W/m² | - |
| 1777987860 | 17.78° C | 77% | 1016.2 hPa | 0 mm | - | 352 W/m² | - |
| 1777987555 | 17.22° C | 77% | 1016.1 hPa | 0 mm | - | 372 W/m² | - |
* Rain latest hour (hover to see other rain measurements)
** Current wind speed in m/s (hover to see current wind gust speed)